Time,TemperatureF,DewpointF,PressureIn,WindDirection,WindDirectionDegrees,WindSpeedMPH,WindSpeedGustMPH,Humidity,HourlyPrecipIn,Conditions,Clouds,dailyrainin,SoftwareType,DateUTC
2013-06-03 00:06:00,73.8,62.0,29.90,East,94,5.0,7.0,66,0.00,,,0.00,weatherlink.com 1.10,2013-06-03 05:06:00,
2013-06-03 00:21:00,73.5,62.0,29.91,East,94,5.0,7.0,67,0.00,,,0.00,weatherlink.com 1.10,2013-06-03 05:21:00,
2013-06-03 00:36:00,73.1,62.0,29.91,East,94,6.0,6.0,68,0.00,,,0.00,weatherlink.com 1.10,2013-06-03 05:36:00,
2013-06-03 00:51:00,72.9,62.0,29.91,East,94,8.0,8.0,68,0.00,,,0.00,weatherlink.com 1.10,2013-06-03 05:51:00,
2013-06-03 01:06:00,72.6,62.0,29.91,East,94,5.0,8.0,69,0.00,,,0.00,weatherlink.com 1.10,2013-06-03 06:06:00,
2013-06-03 01:21:00,72.3,62.0,29.91,East,100,4.0,10.0,70,0.00,,,0.00,weatherlink.com 1.10,2013-06-03 06:21:00,
2013-06-03 01:36:00,71.9,62.0,29.91,ESE,102,6.0,8.0,70,0.00,,,0.00,weatherlink.com 1.10,2013-06-03 06:36:00,
2013-06-03 01:51:00,71.9,62.0,29.91,ESE,109,6.0,9.0,70,0.00,,,0.00,weatherlink.com 1.10,2013-06-03 06:51:00,
2013-06-03 02:06:00,71.7,61.0,29.91,SE,135,5.0,10.0,68,0.00,,,0.00,weatherlink.com 1.10,2013-06-03 07:06:00,
2013-06-03 02:21:00,71.9,60.0,29.91,SE,136,4.0,8.0,66,0.00,,,0.00,weatherlink.com 1.10,2013-06-03 07:21:00,
2013-06-03 02:37:00,72.1,61.0,29.92,SE,136,3.0,8.0,67,0.00,,,0.00,weatherlink.com 1.10,2013-06-03 07:37:00,
2013-06-03 02:52:00,71.7,60.0,29.91,SE,136,4.0,7.0,67,0.00,,,0.00,weatherlink.com 1.10,2013-06-03 07:52:00,
2013-06-03 03:07:00,71.6,60.0,29.92,SE,136,2.0,8.0,67,0.00,,,0.00,weatherlink.com 1.10,2013-06-03 08:07:00,
2013-06-03 03:22:00,71.1,60.0,29.92,SE,136,0.0,4.0,68,0.00,,,0.00,weatherlink.com 1.10,2013-06-03 08:22:00,
2013-06-03 03:37:00,70.4,60.0,29.92,SE,136,0.0,3.0,69,0.00,,,0.00,weatherlink.com 1.10,2013-06-03 08:37:00,
2013-06-03 03:52:00,69.6,59.0,29.91,SE,136,2.0,2.0,70,0.00,,,0.00,weatherlink.com 1.10,2013-06-03 08:52:00,
2013-06-03 04:07:00,69.2,59.0,29.91,SE,136,1.0,3.0,70,0.00,,,0.00,weatherlink.com 1.10,2013-06-03 09:07:00,
2013-06-03 04:22:00,69.0,59.0,29.92,SE,136,0.0,0.0,71,0.00,,,0.00,weatherlink.com 1.10,2013-06-03 09:22:00,
2013-06-03 04:37:00,68.7,60.0,29.91,SE,136,0.0,0.0,73,0.00,,,0.00,weatherlink.com 1.10,2013-06-03 09:37:00,
2013-06-03 04:52:00,68.2,60.0,29.92,SE,136,0.0,0.0,76,0.00,,,0.00,weatherlink.com 1.10,2013-06-03 09:52:00,
2013-06-03 05:07:00,67.8,62.0,29.93,SE,136,0.0,0.0,81,0.00,,,0.00,weatherlink.com 1.10,2013-06-03 10:07:00,
2013-06-03 05:22:00,66.2,60.0,29.92,SE,136,2.0,7.0,81,0.00,,,0.00,weatherlink.com 1.10,2013-06-03 10:22:00,
2013-06-03 05:37:00,65.6,61.0,29.93,SE,136,4.0,7.0,84,0.00,,,0.00,weatherlink.com 1.10,2013-06-03 10:37:00,
2013-06-03 05:52:00,65.7,61.0,29.93,SE,136,0.0,4.0,85,0.00,,,0.00,weatherlink.com 1.10,2013-06-03 10:52:00,
2013-06-03 06:07:00,65.9,61.0,29.93,SE,136,3.0,4.0,84,0.00,,,0.00,weatherlink.com 1.10,2013-06-03 11:07:00,
2013-06-03 06:22:00,66.3,61.0,29.93,SE,136,3.0,5.0,84,0.00,,,0.00,weatherlink.com 1.10,2013-06-03 11:22:00,
2013-06-03 06:37:00,66.1,62.0,29.93,SE,136,5.0,8.0,85,0.00,,,0.00,weatherlink.com 1.10,2013-06-03 11:37:00,
2013-06-03 06:52:00,66.8,61.0,29.92,East,93,8.0,11.0,82,0.00,,,0.00,weatherlink.com 1.10,2013-06-03 11:52:00,
2013-06-03 07:07:00,66.6,61.0,29.92,East,94,7.0,9.0,83,0.00,,,0.00,weatherlink.com 1.10,2013-06-03 12:07:00,
2013-06-03 07:22:00,68.1,61.0,29.92,East,90,6.0,11.0,78,0.00,,,0.00,weatherlink.com 1.10,2013-06-03 12:22:00,
2013-06-03 07:37:00,69.1,62.0,29.91,East,98,11.0,12.0,77,0.00,,,0.00,weatherlink.com 1.10,2013-06-03 12:37:00,
2013-06-03 07:52:00,70.3,62.0,29.91,ESE,106,9.0,9.0,75,0.00,,,0.00,weatherlink.com 1.10,2013-06-03 12:52:00,
2013-06-03 08:07:00,71.3,62.0,29.91,ESE,106,4.0,6.0,73,0.00,,,0.00,weatherlink.com 1.10,2013-06-03 13:07:00,
2013-06-03 08:22:00,72.9,63.0,29.93,ESE,106,3.0,7.0,70,0.00,,,0.00,weatherlink.com 1.10,2013-06-03 13:22:00,
2013-06-03 08:37:00,74.3,62.0,29.93,ESE,106,1.0,5.0,66,0.00,,,0.00,weatherlink.com 1.10,2013-06-03 13:37:00,
2013-06-03 08:52:00,75.0,62.0,29.92,ESE,106,4.0,7.0,65,0.00,,,0.00,weatherlink.com 1.10,2013-06-03 13:52:00,
2013-06-03 09:07:00,75.9,63.0,29.93,SSE,147,6.0,11.0,65,0.00,,,0.00,weatherlink.com 1.10,2013-06-03 14:07:00,
2013-06-03 09:22:00,76.3,64.0,29.93,SSE,156,6.0,9.0,65,0.00,,,0.00,weatherlink.com 1.10,2013-06-03 14:22:00,
2013-06-03 09:37:00,75.6,63.0,29.92,SSE,156,6.0,8.0,66,0.00,,,0.00,weatherlink.com 1.10,2013-06-03 14:37:00,
2013-06-03 09:52:00,76.7,65.0,29.92,South,183,4.0,10.0,67,0.00,,,0.00,weatherlink.com 1.10,2013-06-03 14:52:00,
2013-06-03 10:07:00,77.3,65.0,29.92,South,185,5.0,9.0,66,0.00,,,0.00,weatherlink.com 1.10,2013-06-03 15:07:00,
2013-06-03 10:23:00,77.7,65.0,29.92,SSE,167,4.0,11.0,65,0.00,,,0.00,weatherlink.com 1.10,2013-06-03 15:23:00,
2013-06-03 10:38:00,78.4,65.0,29.93,SSW,198,9.0,10.0,64,0.00,,,0.00,weatherlink.com 1.10,2013-06-03 15:38:00,
2013-06-03 10:53:00,80.0,67.0,29.93,SSW,213,6.0,9.0,64,0.00,,,0.00,weatherlink.com 1.10,2013-06-03 15:53:00,
2013-06-03 11:08:00,80.3,65.0,29.93,SSW,201,4.0,9.0,59,0.00,,,0.00,weatherlink.com 1.10,2013-06-03 16:08:00,
2013-06-03 11:23:00,80.7,65.0,29.92,SSW,202,4.0,10.0,60,0.00,,,0.00,weatherlink.com 1.10,2013-06-03 16:23:00,
2013-06-03 11:38:00,81.3,66.0,29.92,SSW,208,6.0,8.0,60,0.00,,,0.00,weatherlink.com 1.10,2013-06-03 16:38:00,
2013-06-03 11:53:00,81.2,65.0,29.91,South,190,6.0,10.0,58,0.00,,,0.00,weatherlink.com 1.10,2013-06-03 16:53:00,
2013-06-03 12:08:00,82.2,66.0,29.90,SW,217,6.0,9.0,59,0.00,,,0.00,weatherlink.com 1.10,2013-06-03 17:08:00,
2013-06-03 12:23:00,83.2,67.0,29.89,South,190,5.0,8.0,59,0.00,,,0.00,weatherlink.com 1.10,2013-06-03 17:23:00,
2013-06-03 12:38:00,83.4,67.0,29.89,SW,232,3.0,9.0,57,0.00,,,0.00,weatherlink.com 1.10,2013-06-03 17:38:00,
2013-06-03 12:53:00,83.8,66.0,29.87,South,183,9.0,11.0,56,0.00,,,0.00,weatherlink.com 1.10,2013-06-03 17:53:00,
2013-06-03 13:08:00,84.6,66.0,29.86,South,190,6.0,11.0,53,0.00,,,0.00,weatherlink.com 1.10,2013-06-03 18:08:00,
2013-06-03 13:23:00,85.9,66.0,29.86,South,171,8.0,13.0,51,0.00,,,0.00,weatherlink.com 1.10,2013-06-03 18:23:00,
2013-06-03 13:38:00,85.8,66.0,29.86,SW,225,10.0,10.0,51,0.00,,,0.00,weatherlink.com 1.10,2013-06-03 18:38:00,
2013-06-03 13:53:00,86.0,65.0,29.85,South,190,7.0,10.0,50,0.00,,,0.00,weatherlink.com 1.10,2013-06-03 18:53:00,
2013-06-03 14:08:00,86.4,66.0,29.84,South,178,7.0,10.0,50,0.00,,,0.00,weatherlink.com 1.10,2013-06-03 19:08:00,
2013-06-03 14:23:00,86.9,64.0,29.83,South,177,8.0,15.0,47,0.00,,,0.00,weatherlink.com 1.10,2013-06-03 19:23:00,
2013-06-03 14:38:00,88.1,66.0,29.82,South,182,9.0,14.0,48,0.00,,,0.00,weatherlink.com 1.10,2013-06-03 19:38:00,
2013-06-03 14:53:00,88.8,66.0,29.82,South,186,11.0,14.0,47,0.00,,,0.00,weatherlink.com 1.10,2013-06-03 19:53:00,
2013-06-03 15:08:00,89.5,65.0,29.81,South,190,7.0,11.0,44,0.00,,,0.00,weatherlink.com 1.10,2013-06-03 20:08:00,
2013-06-03 15:23:00,89.9,66.0,29.81,South,191,12.0,13.0,45,0.00,,,0.00,weatherlink.com 1.10,2013-06-03 20:23:00,
2013-06-03 15:38:00,90.3,65.0,29.80,SSW,196,6.0,12.0,43,0.00,,,0.00,weatherlink.com 1.10,2013-06-03 20:38:00,
2013-06-03 15:54:00,90.6,64.0,29.79,SSW,193,9.0,14.0,41,0.00,,,0.00,weatherlink.com 1.10,2013-06-03 20:54:00,
2013-06-03 16:09:00,90.7,63.0,29.79,South,178,10.0,13.0,40,0.00,,,0.00,weatherlink.com 1.10,2013-06-03 21:09:00,
2013-06-03 16:24:00,91.9,62.0,29.79,SSW,204,4.0,14.0,37,0.00,,,0.00,weatherlink.com 1.10,2013-06-03 21:24:00,
2013-06-03 16:39:00,91.8,62.0,29.79,SSW,196,6.0,10.0,37,0.00,,,0.00,weatherlink.com 1.10,2013-06-03 21:39:00,
2013-06-03 16:54:00,92.1,61.0,29.78,SSW,206,7.0,10.0,35,0.00,,,0.00,weatherlink.com 1.10,2013-06-03 21:54:00,
2013-06-03 17:09:00,91.7,63.0,29.78,SSW,192,10.0,13.0,38,0.00,,,0.00,weatherlink.com 1.10,2013-06-03 22:09:00,
2013-06-03 17:24:00,91.1,63.0,29.77,South,170,4.0,12.0,39,0.00,,,0.00,weatherlink.com 1.10,2013-06-03 22:24:00,
2013-06-03 17:39:00,90.6,64.0,29.77,South,173,7.0,9.0,41,0.00,,,0.00,weatherlink.com 1.10,2013-06-03 22:39:00,
2013-06-03 17:54:00,91.3,64.0,29.77,SSW,192,8.0,10.0,40,0.00,,,0.00,weatherlink.com 1.10,2013-06-03 22:54:00,
2013-06-03 18:09:00,91.0,64.0,29.76,South,183,5.0,12.0,40,0.00,,,0.00,weatherlink.com 1.10,2013-06-03 23:09:00,
2013-06-03 18:24:00,90.1,65.0,29.76,South,177,4.0,11.0,43,0.00,,,0.00,weatherlink.com 1.10,2013-06-03 23:24:00,
2013-06-03 18:39:00,89.7,64.0,29.76,SSE,165,3.0,10.0,43,0.00,,,0.00,weatherlink.com 1.10,2013-06-03 23:39:00,
2013-06-03 18:54:00,89.5,63.0,29.76,SSE,164,8.0,14.0,41,0.00,,,0.00,weatherlink.com 1.10,2013-06-03 23:54:00,
2013-06-03 19:09:00,89.3,65.0,29.76,SSE,148,13.0,15.0,45,0.00,,,0.00,weatherlink.com 1.10,2013-06-04 00:09:00,
2013-06-03 19:24:00,88.8,64.0,29.77,SE,141,13.0,16.0,43,0.00,,,0.00,weatherlink.com 1.10,2013-06-04 00:24:00,
2013-06-03 19:39:00,88.1,65.0,29.77,SSE,156,11.0,15.0,46,0.00,,,0.00,weatherlink.com 1.10,2013-06-04 00:39:00,
2013-06-03 19:54:00,87.2,66.0,29.77,SSE,162,10.0,14.0,50,0.00,,,0.00,weatherlink.com 1.10,2013-06-04 00:54:00,
2013-06-03 20:09:00,86.7,66.0,29.77,SSE,150,9.0,16.0,51,0.00,,,0.00,weatherlink.com 1.10,2013-06-04 01:09:00,
2013-06-03 20:24:00,85.9,66.0,29.77,SE,146,10.0,13.0,51,0.00,,,0.00,weatherlink.com 1.10,2013-06-04 01:24:00,
2013-06-03 20:39:00,85.9,65.0,29.77,SE,146,9.0,11.0,50,0.00,,,0.00,weatherlink.com 1.10,2013-06-04 01:39:00,
2013-06-03 20:54:00,85.5,65.0,29.78,SE,146,7.0,13.0,50,0.00,,,0.00,weatherlink.com 1.10,2013-06-04 01:54:00,
2013-06-03 21:09:00,84.8,66.0,29.78,SSE,154,8.0,10.0,54,0.00,,,0.00,weatherlink.com 1.10,2013-06-04 02:09:00,
2013-06-03 21:24:00,84.1,66.0,29.79,SSE,150,7.0,10.0,55,0.00,,,0.00,weatherlink.com 1.10,2013-06-04 02:24:00,
2013-06-03 21:39:00,83.8,65.0,29.79,SSE,150,11.0,13.0,54,0.00,,,0.00,weatherlink.com 1.10,2013-06-04 02:39:00,
2013-06-03 21:54:00,83.1,66.0,29.79,SSE,157,8.0,11.0,56,0.00,,,0.00,weatherlink.com 1.10,2013-06-04 02:54:00,
2013-06-03 22:09:00,82.5,66.0,29.80,SSE,162,8.0,10.0,57,0.00,,,0.00,weatherlink.com 1.10,2013-06-04 03:09:00,
2013-06-03 22:24:00,82.0,66.0,29.80,SSE,162,8.0,11.0,58,0.00,,,0.00,weatherlink.com 1.10,2013-06-04 03:24:00,
2013-06-03 22:39:00,81.5,65.0,29.80,SSE,159,10.0,13.0,58,0.00,,,0.00,weatherlink.com 1.10,2013-06-04 03:39:00,
2013-06-03 22:54:00,81.1,65.0,29.80,SSE,156,7.0,11.0,59,0.00,,,0.00,weatherlink.com 1.10,2013-06-04 03:54:00,
2013-06-03 23:09:00,80.4,65.0,29.81,SSE,158,6.0,10.0,60,0.00,,,0.00,weatherlink.com 1.10,2013-06-04 04:09:00,
2013-06-03 23:24:00,79.6,65.0,29.81,SSE,158,5.0,7.0,62,0.00,,,0.00,weatherlink.com 1.10,2013-06-04 04:24:00,
2013-06-03 23:39:00,79.0,65.0,29.80,SSE,158,5.0,7.0,63,0.00,,,0.00,weatherlink.com 1.10,2013-06-04 04:39:00,
2013-06-03 23:54:00,78.7,66.0,29.80,SSE,158,3.0,6.0,65,0.00,,,0.00,weatherlink.com 1.10,2013-06-04 04:54:00,